createdAt,value
2022-10-01T00:00:56.621Z,51.97
2022-10-01T00:03:25.574Z,51.95
2022-10-01T00:06:11.080Z,52.10
2022-10-01T00:08:39.799Z,51.95
2022-10-01T00:11:11.960Z,51.72
2022-10-01T00:13:38.987Z,51.87
2022-10-01T00:16:08.578Z,51.70
2022-10-01T00:18:39.840Z,51.94
2022-10-01T00:21:11.795Z,51.98
2022-10-01T00:23:38.389Z,52.00
2022-10-01T00:26:16.928Z,51.73
2022-10-01T00:28:46.005Z,51.54
2022-10-01T00:31:14.351Z,51.72
2022-10-01T00:33:41.162Z,51.63
2022-10-01T00:36:09.755Z,51.61
2022-10-01T00:38:37.842Z,51.75
2022-10-01T00:41:05.153Z,51.67
2022-10-01T00:43:37.836Z,51.60
2022-10-01T00:46:29.922Z,51.57
2022-10-01T00:49:02.227Z,51.53
2022-10-01T00:51:33.130Z,51.62
2022-10-01T00:54:08.375Z,51.46
2022-10-01T00:56:34.785Z,51.36
2022-10-01T00:59:01.946Z,51.44
2022-10-01T01:01:28.674Z,51.38
2022-10-01T01:03:56.459Z,51.26
2022-10-01T01:06:22.862Z,51.64
2022-10-01T01:08:54.961Z,51.60
2022-10-01T01:11:30.068Z,51.45
2022-10-01T01:14:15.831Z,51.67
2022-10-01T01:16:59.699Z,51.72
2022-10-01T01:20:03.506Z,52.06
2022-10-01T01:22:34.509Z,52.12
2022-10-01T01:25:21.353Z,52.32
2022-10-01T01:28:19.734Z,52.26
2022-10-01T01:30:49.178Z,52.69
2022-10-01T01:33:20.535Z,52.98
2022-10-01T01:35:52.684Z,53.06
2022-10-01T01:38:24.339Z,53.00
2022-10-01T01:40:55.717Z,53.66
2022-10-01T01:43:31.501Z,53.99
2022-10-01T01:46:00.234Z,54.01
2022-10-01T01:48:29.063Z,54.26
2022-10-01T01:51:31.437Z,54.30
2022-10-01T01:53:59.163Z,54.66
2022-10-01T01:56:26.098Z,54.83
2022-10-01T01:58:53.979Z,55.07
2022-10-01T02:01:44.103Z,55.17
2022-10-01T02:04:22.131Z,55.52
2022-10-01T02:07:18.355Z,55.67
2022-10-01T02:10:17.303Z,55.62
2022-10-01T02:13:03.378Z,56.08
2022-10-01T02:16:27.529Z,56.41
2022-10-01T02:19:13.574Z,56.68
2022-10-01T02:22:06.085Z,56.96
2022-10-01T02:24:44.417Z,57.11
2022-10-01T02:27:40.429Z,57.20
2022-10-01T02:30:09.458Z,57.43
2022-10-01T02:32:38.821Z,58.04
2022-10-01T02:35:09.498Z,57.96
2022-10-01T02:37:38.511Z,58.28
2022-10-01T02:40:08.682Z,58.54
2022-10-01T02:42:37.191Z,58.73
2022-10-01T02:45:04.892Z,58.98
2022-10-01T02:47:36.743Z,59.05
2022-10-01T02:50:05.411Z,59.19
2022-10-01T02:52:45.577Z,59.28
2022-10-01T02:55:17.430Z,59.74
2022-10-01T02:57:43.845Z,59.70
2022-10-01T03:00:15.534Z,59.32
2022-10-01T03:02:42.385Z,59.85
2022-10-01T03:05:09.122Z,60.08
2022-10-01T03:07:36.172Z,60.26
2022-10-01T03:10:06.238Z,60.10
2022-10-01T03:12:33.049Z,60.34
2022-10-01T03:14:59.448Z,60.70
2022-10-01T03:17:26.034Z,60.62
2022-10-01T03:19:52.712Z,60.61
2022-10-01T03:22:22.550Z,60.70
2022-10-01T03:24:52.845Z,60.57
2022-10-01T03:27:20.691Z,60.89
2022-10-01T03:29:47.194Z,60.90
2022-10-01T03:32:13.828Z,60.98
2022-10-01T03:34:40.349Z,61.26
2022-10-01T03:37:07.230Z,61.35
2022-10-01T03:39:33.859Z,61.66
2022-10-01T03:42:00.500Z,61.66
2022-10-01T03:44:28.330Z,61.62
2022-10-01T03:46:55.072Z,61.98
2022-10-01T03:49:21.571Z,61.95
2022-10-01T03:51:47.928Z,62.06
2022-10-01T03:54:14.541Z,62.17
2022-10-01T03:56:42.584Z,62.33
2022-10-01T03:59:10.919Z,62.20
2022-10-01T04:01:38.950Z,62.40
2022-10-01T04:04:05.895Z,62.54
2022-10-01T04:06:32.823Z,62.72
2022-10-01T04:08:59.286Z,62.82
2022-10-01T04:11:25.908Z,62.73
2022-10-01T04:13:52.327Z,62.96
2022-10-01T04:16:18.911Z,62.98
2022-10-01T04:18:45.339Z,63.19
2022-10-01T04:21:12.750Z,63.10
2022-10-01T04:23:39.283Z,62.91
2022-10-01T04:26:05.782Z,63.51
2022-10-01T04:28:32.293Z,63.58
2022-10-01T04:31:17.566Z,63.49
2022-10-01T04:33:44.465Z,63.60
2022-10-01T04:36:11.003Z,63.68
2022-10-01T04:38:37.463Z,63.60
2022-10-01T04:41:04.006Z,63.72
2022-10-01T04:43:30.332Z,64.12
2022-10-01T04:45:56.695Z,63.86
2022-10-01T04:48:24.213Z,63.84
2022-10-01T04:50:50.560Z,63.85
2022-10-01T04:53:16.888Z,63.94
2022-10-01T04:55:43.720Z,63.80
2022-10-01T04:58:10.433Z,63.63
2022-10-01T05:00:36.919Z,63.83
2022-10-01T05:03:03.525Z,64.08
2022-10-01T05:05:32.868Z,64.54
2022-10-01T05:07:59.275Z,64.17
2022-10-01T05:10:26.171Z,64.26
2022-10-01T05:12:52.533Z,64.29
2022-10-01T05:15:19.377Z,64.38
2022-10-01T05:17:46.993Z,64.22
2022-10-01T05:20:19.515Z,64.07
2022-10-01T05:22:46.844Z,64.61
2022-10-01T05:25:13.844Z,64.66
2022-10-01T05:27:40.667Z,64.63
2022-10-01T05:30:08.869Z,64.67
2022-10-01T05:32:36.266Z,64.99
2022-10-01T05:35:03.921Z,64.98
2022-10-01T05:37:30.264Z,65.29
2022-10-01T05:39:56.619Z,65.29
2022-10-01T05:42:22.978Z,65.27
2022-10-01T05:44:50.113Z,65.54
2022-10-01T05:47:17.669Z,65.18
2022-10-01T05:49:44.821Z,65.54
2022-10-01T05:52:12.879Z,65.59
2022-10-01T05:54:39.809Z,65.63
2022-10-01T05:57:08.005Z,65.86
2022-10-01T05:59:35.370Z,65.88
2022-10-01T06:02:02.697Z,66.15
2022-10-01T06:04:29.121Z,66.11
2022-10-01T06:06:56.367Z,66.15
2022-10-01T06:09:22.890Z,66.29
2022-10-01T06:11:49.566Z,66.46
2022-10-01T06:14:16.464Z,66.48
2022-10-01T06:16:42.958Z,66.62
2022-10-01T06:19:09.655Z,66.28
2022-10-01T06:21:36.391Z,66.44
2022-10-01T06:24:03.215Z,66.47
2022-10-01T06:26:29.570Z,66.48
2022-10-01T06:28:56.586Z,66.64
2022-10-01T06:31:23.399Z,66.64
2022-10-01T06:33:49.857Z,66.55
2022-10-01T06:36:16.245Z,66.53
2022-10-01T06:38:43.050Z,66.62
2022-10-01T06:41:09.946Z,66.75
2022-10-01T06:43:36.266Z,66.72
2022-10-01T06:46:04.278Z,66.71
2022-10-01T06:48:31.424Z,66.98
2022-10-01T06:50:58.754Z,66.98
2022-10-01T06:53:27.938Z,66.63
2022-10-01T06:55:54.922Z,67.06
2022-10-01T06:58:23.480Z,66.95
2022-10-01T07:00:50.851Z,66.93
2022-10-01T07:03:19.994Z,66.94
2022-10-01T07:05:46.736Z,67.01
2022-10-01T07:08:13.238Z,67.03
2022-10-01T07:10:41.231Z,66.87
2022-10-01T07:13:09.562Z,66.93
2022-10-01T07:15:36.460Z,67.00
2022-10-01T07:18:03.268Z,67.20
2022-10-01T07:20:30.323Z,67.16
2022-10-01T07:22:58.659Z,67.08
2022-10-01T07:25:26.295Z,67.38
2022-10-01T07:27:57.342Z,67.34
2022-10-01T07:30:24.345Z,67.61
2022-10-01T07:32:50.874Z,67.55
2022-10-01T07:35:19.838Z,67.54
2022-10-01T07:37:48.019Z,67.49
2022-10-01T07:40:16.333Z,67.61
2022-10-01T07:42:43.562Z,67.69
2022-10-01T07:45:10.749Z,67.58
2022-10-01T07:47:37.146Z,67.79
2022-10-01T07:50:04.038Z,67.64
2022-10-01T07:52:30.377Z,67.45
2022-10-01T07:54:56.724Z,67.85
2022-10-01T07:57:23.305Z,67.75
2022-10-01T07:59:54.865Z,67.90
2022-10-01T08:02:22.201Z,67.97
2022-10-01T08:05:07.383Z,67.91
2022-10-01T08:07:35.638Z,67.51
2022-10-01T08:10:04.299Z,67.60
2022-10-01T08:12:30.683Z,67.46
2022-10-01T08:14:57.117Z,67.23
2022-10-01T08:17:28.580Z,67.35
2022-10-01T08:19:55.758Z,66.86
2022-10-01T08:22:22.078Z,66.92
2022-10-01T08:24:48.429Z,66.69
2022-10-01T08:27:14.866Z,66.19
2022-10-01T08:29:43.221Z,66.08
2022-10-01T08:32:10.672Z,66.30
2022-10-01T08:34:37.110Z,66.17
2022-10-01T08:37:03.509Z,66.25
2022-10-01T08:39:29.881Z,66.02
2022-10-01T08:42:36.351Z,66.02
2022-10-01T08:45:12.540Z,66.17
2022-10-01T08:47:43.750Z,66.25
2022-10-01T08:50:32.267Z,65.51
2022-10-01T08:53:04.390Z,65.61
2022-10-01T08:55:36.506Z,65.63
2022-10-01T08:58:10.270Z,65.54
2022-10-01T09:00:41.763Z,65.38
2022-10-01T09:03:12.725Z,65.39
2022-10-01T09:06:06.555Z,65.49
2022-10-01T09:08:54.878Z,65.16
2022-10-01T09:11:58.652Z,64.98
2022-10-01T09:14:55.293Z,64.99
2022-10-01T09:17:43.526Z,64.89
2022-10-01T09:20:27.369Z,64.92
2022-10-01T09:23:29.948Z,64.34
2022-10-01T09:25:59.501Z,64.61
2022-10-01T09:28:34.930Z,64.59
2022-10-01T09:31:13.969Z,64.27
2022-10-01T09:33:50.775Z,64.46
2022-10-01T09:36:33.543Z,64.86
2022-10-01T09:39:12.386Z,64.76
2022-10-01T09:41:38.791Z,65.20
2022-10-01T09:44:09.089Z,64.98
2022-10-01T09:46:35.564Z,65.27
2022-10-01T09:49:24.939Z,64.78
2022-10-01T09:51:57.147Z,64.78
2022-10-01T09:54:45.886Z,64.91
2022-10-01T09:57:25.090Z,64.65
2022-10-01T10:00:11.969Z,64.00
2022-10-01T10:02:48.918Z,63.49
2022-10-01T10:05:17.323Z,63.60
2022-10-01T10:08:08.053Z,63.51
2022-10-01T10:10:39.568Z,62.92
2022-10-01T10:13:21.970Z,62.49
2022-10-01T10:15:57.511Z,62.74
2022-10-01T10:18:34.835Z,61.75
2022-10-01T10:21:12.057Z,61.47
2022-10-01T10:23:50.891Z,60.32
2022-10-01T10:26:32.540Z,60.46
2022-10-01T10:29:02.109Z,60.63
2022-10-01T10:31:42.466Z,59.70
2022-10-01T10:34:16.447Z,59.68
2022-10-01T10:36:44.644Z,59.25
2022-10-01T10:39:20.827Z,59.22
2022-10-01T10:41:48.664Z,59.10
2022-10-01T10:44:21.277Z,58.92
2022-10-01T10:46:50.026Z,58.94
2022-10-01T10:49:16.466Z,58.29
2022-10-01T10:51:48.587Z,58.11
2022-10-01T10:54:20.267Z,57.95
2022-10-01T10:56:54.939Z,57.45
2022-10-01T10:59:21.371Z,57.12
2022-10-01T11:01:48.430Z,57.26
2022-10-01T11:04:45.658Z,56.65
2022-10-01T11:07:18.810Z,56.51
2022-10-01T11:10:00.530Z,56.27
2022-10-01T11:13:06.535Z,55.74
2022-10-01T11:16:11.886Z,55.48
2022-10-01T11:18:54.661Z,55.88
2022-10-01T11:21:35.092Z,55.13
2022-10-01T11:24:14.238Z,54.86
2022-10-01T11:27:12.477Z,55.62
2022-10-01T11:29:54.658Z,55.51
2022-10-01T11:32:46.509Z,56.26
2022-10-01T11:35:58.108Z,56.13
2022-10-01T11:38:50.028Z,56.93
2022-10-01T11:41:42.345Z,56.71
2022-10-01T11:44:30.652Z,56.97
2022-10-01T11:47:06.059Z,57.44
2022-10-01T11:49:43.687Z,57.70
2022-10-01T11:52:19.050Z,57.58
2022-10-01T11:54:56.483Z,57.50
2022-10-01T11:57:43.007Z,57.70
2022-10-01T12:00:12.737Z,57.50
2022-10-01T12:03:00.382Z,56.27
2022-10-01T12:05:31.506Z,55.89
2022-10-01T12:08:09.092Z,55.88
2022-10-01T12:10:40.508Z,55.16
2022-10-01T12:13:16.160Z,55.20
2022-10-01T12:16:04.980Z,54.83
2022-10-01T12:18:40.863Z,53.70
2022-10-01T12:21:13.998Z,53.65
2022-10-01T12:23:48.558Z,53.41
2022-10-01T12:26:42.107Z,52.74
2022-10-01T12:29:20.736Z,52.65
2022-10-01T12:32:13.519Z,52.62
2022-10-01T12:35:00.588Z,52.28
2022-10-01T12:37:58.291Z,52.04
2022-10-01T12:40:43.298Z,52.36
2022-10-01T12:43:28.675Z,52.33
2022-10-01T12:46:14.829Z,51.41
2022-10-01T12:48:54.888Z,51.14
2022-10-01T12:51:42.765Z,51.30
2022-10-01T12:54:41.024Z,51.22
2022-10-01T12:57:36.836Z,51.15
2022-10-01T13:00:22.790Z,50.63
2022-10-01T13:03:13.026Z,49.18
2022-10-01T13:06:06.470Z,53.43
2022-10-01T13:08:38.694Z,54.16
2022-10-01T13:11:05.883Z,56.12
2022-10-01T13:13:33.726Z,58.37
2022-10-01T13:16:21.027Z,60.42
2022-10-01T13:19:11.143Z,62.60
2022-10-01T13:21:57.491Z,64.64
2022-10-01T13:24:38.723Z,66.86
2022-10-01T13:27:23.534Z,68.15
2022-10-01T13:29:56.476Z,69.86
2022-10-01T13:32:58.306Z,71.01
2022-10-01T13:35:47.543Z,72.82
2022-10-01T13:38:47.621Z,73.23
2022-10-01T13:41:28.128Z,74.15
2022-10-01T13:43:59.143Z,74.80
2022-10-01T13:46:31.077Z,74.35
2022-10-01T13:49:07.478Z,74.69
2022-10-01T13:51:38.279Z,75.35
2022-10-01T13:54:13.527Z,75.53
2022-10-01T13:56:42.189Z,76.03
2022-10-01T13:59:38.960Z,75.88
2022-10-01T14:02:45.131Z,76.05
2022-10-01T14:05:17.299Z,75.84
2022-10-01T14:07:46.186Z,76.39
2022-10-01T14:10:15.550Z,77.01
2022-10-01T14:13:04.608Z,77.26
2022-10-01T14:16:00.277Z,77.06
2022-10-01T14:18:33.061Z,77.72
2022-10-01T14:21:29.320Z,77.84
2022-10-01T14:24:02.823Z,78.29
2022-10-01T14:26:51.610Z,78.81
2022-10-01T14:29:39.487Z,79.46
2022-10-01T14:32:23.002Z,79.87
2022-10-01T14:35:20.562Z,79.87
2022-10-01T14:37:47.244Z,80.21
2022-10-01T14:40:20.835Z,80.40
2022-10-01T14:43:13.566Z,80.31
2022-10-01T14:45:50.743Z,79.94
2022-10-01T14:48:17.104Z,79.86
2022-10-01T14:50:49.464Z,79.69
2022-10-01T14:53:18.515Z,78.66
2022-10-01T14:55:47.321Z,78.39
2022-10-01T14:58:53.251Z,78.43
2022-10-01T15:01:21.662Z,77.89
2022-10-01T15:03:49.552Z,77.69
2022-10-01T15:06:22.086Z,76.61
2022-10-01T15:08:51.532Z,76.44
2022-10-01T15:11:25.677Z,75.85
2022-10-01T15:13:55.319Z,75.43
2022-10-01T15:16:27.410Z,74.71
2022-10-01T15:19:00.165Z,74.66
2022-10-01T15:21:35.264Z,75.69
2022-10-01T15:24:04.303Z,76.80
2022-10-01T15:26:32.838Z,76.69
2022-10-01T15:29:06.185Z,76.23
2022-10-01T15:31:34.180Z,74.81
2022-10-01T15:34:05.939Z,73.94
2022-10-01T15:36:34.434Z,73.66
2022-10-01T15:39:04.616Z,74.00
2022-10-01T15:41:33.675Z,73.83
2022-10-01T15:44:05.304Z,74.29
2022-10-01T15:46:34.994Z,74.62
2022-10-01T15:49:24.140Z,75.11
2022-10-01T15:52:18.658Z,75.19
2022-10-01T15:54:45.790Z,75.41
2022-10-01T15:57:22.921Z,75.70
2022-10-01T15:59:53.921Z,75.88
2022-10-01T16:02:30.756Z,75.91
2022-10-01T16:05:05.241Z,75.91
2022-10-01T16:07:34.763Z,75.93
2022-10-01T16:10:34.055Z,76.03
2022-10-01T16:13:39.553Z,75.33
2022-10-01T16:16:22.274Z,74.54
2022-10-01T16:18:54.063Z,74.13
2022-10-01T16:21:20.939Z,73.75
2022-10-01T16:23:52.944Z,73.80
2022-10-01T16:26:33.665Z,74.16
2022-10-01T16:29:04.407Z,74.50
2022-10-01T16:31:31.218Z,74.68
2022-10-01T16:33:58.022Z,74.93
2022-10-01T16:36:26.187Z,75.06
2022-10-01T16:38:52.529Z,75.33
2022-10-01T16:41:26.047Z,75.61
2022-10-01T16:43:55.850Z,75.77
2022-10-01T16:46:22.314Z,76.08
2022-10-01T16:48:53.459Z,76.29
2022-10-01T16:51:21.998Z,75.92
2022-10-01T16:53:49.749Z,75.07
2022-10-01T16:56:16.220Z,75.14
2022-10-01T16:58:43.250Z,75.02
2022-10-01T17:01:13.076Z,74.94
2022-10-01T17:03:39.864Z,74.86
2022-10-01T17:06:06.743Z,75.13
2022-10-01T17:08:33.091Z,75.18
2022-10-01T17:11:01.883Z,75.02
2022-10-01T17:13:34.961Z,75.23
2022-10-01T17:16:01.781Z,75.05
2022-10-01T17:18:28.344Z,75.10
2022-10-01T17:20:56.003Z,74.91
2022-10-01T17:23:22.450Z,74.91
2022-10-01T17:25:49.302Z,75.33
2022-10-01T17:28:19.749Z,75.51
2022-10-01T17:30:47.980Z,75.90
2022-10-01T17:33:19.218Z,76.40
2022-10-01T17:35:51.483Z,76.81
2022-10-01T17:38:19.238Z,77.09
2022-10-01T17:40:45.728Z,77.32
2022-10-01T17:43:13.386Z,77.50
2022-10-01T17:45:40.062Z,77.39
2022-10-01T17:48:08.482Z,76.57
2022-10-01T17:50:38.083Z,75.94
2022-10-01T17:53:04.599Z,75.66
2022-10-01T17:55:31.086Z,75.15
2022-10-01T17:57:57.491Z,75.20
2022-10-01T18:00:24.184Z,74.83
2022-10-01T18:02:50.977Z,74.62
2022-10-01T18:05:17.509Z,74.90
2022-10-01T18:07:44.001Z,74.93
2022-10-01T18:10:12.948Z,75.01
2022-10-01T18:12:40.212Z,75.06
2022-10-01T18:15:09.441Z,74.97
2022-10-01T18:17:36.760Z,75.07
2022-10-01T18:20:05.074Z,75.02
2022-10-01T18:22:31.543Z,75.10
2022-10-01T18:24:58.230Z,74.81
2022-10-01T18:27:24.614Z,75.01
2022-10-01T18:29:50.954Z,75.10
2022-10-01T18:32:23.257Z,74.88
2022-10-01T18:34:52.757Z,74.76
2022-10-01T18:37:39.850Z,74.38
2022-10-01T18:40:17.375Z,74.47
2022-10-01T18:42:52.881Z,74.68
2022-10-01T18:45:33.067Z,74.43
2022-10-01T18:48:30.882Z,74.64
2022-10-01T18:51:29.441Z,75.04
2022-10-01T18:54:10.996Z,75.09
2022-10-01T18:56:44.506Z,75.43
2022-10-01T18:59:29.200Z,75.63
2022-10-01T19:02:31.960Z,75.81
2022-10-01T19:05:05.404Z,76.27
2022-10-01T19:07:53.269Z,76.47
2022-10-01T19:10:34.067Z,76.77
2022-10-01T19:13:11.643Z,76.80
2022-10-01T19:15:51.626Z,77.05
2022-10-01T19:18:33.524Z,77.13
2022-10-01T19:21:29.042Z,76.92
2022-10-01T19:24:09.594Z,76.97
2022-10-01T19:26:44.346Z,76.96
2022-10-01T19:29:19.802Z,77.06
2022-10-01T19:31:57.078Z,76.90
2022-10-01T19:34:46.299Z,76.74
2022-10-01T19:37:22.476Z,76.68
2022-10-01T19:39:52.096Z,76.36
2022-10-01T19:42:31.231Z,76.65
2022-10-01T19:45:16.634Z,76.50
2022-10-01T19:48:12.487Z,76.69
2022-10-01T19:50:43.307Z,76.11
2022-10-01T19:53:34.708Z,75.68
2022-10-01T19:56:02.009Z,75.28
2022-10-01T19:58:30.320Z,74.75
2022-10-01T20:00:58.893Z,75.21
2022-10-01T20:03:46.731Z,74.83
2022-10-01T20:06:35.274Z,74.74
2022-10-01T20:09:10.913Z,74.72
2022-10-01T20:12:04.315Z,74.60
2022-10-01T20:15:09.255Z,74.38
2022-10-01T20:17:42.169Z,74.63
2022-10-01T20:21:02.047Z,74.82
2022-10-01T20:23:28.855Z,74.55
2022-10-01T20:26:14.978Z,74.78
2022-10-01T20:29:02.692Z,74.82
2022-10-01T20:31:49.533Z,74.77
2022-10-01T20:34:27.409Z,74.87
2022-10-01T20:37:11.915Z,74.55
2022-10-01T20:39:44.037Z,74.84
2022-10-01T20:42:18.064Z,74.82
2022-10-01T20:44:45.254Z,74.54
2022-10-01T20:47:20.671Z,74.22
2022-10-01T20:50:09.106Z,74.25
2022-10-01T20:52:52.948Z,73.57
2022-10-01T20:55:29.235Z,73.47
2022-10-01T20:58:23.483Z,73.31
2022-10-01T21:00:54.530Z,72.83
2022-10-01T21:03:23.886Z,72.45
2022-10-01T21:06:00.152Z,72.43
2022-10-01T21:08:46.424Z,72.79
2022-10-01T21:11:45.314Z,72.71
2022-10-01T21:14:28.848Z,73.04
2022-10-01T21:17:01.061Z,73.28
2022-10-01T21:20:02.231Z,72.82
2022-10-01T21:22:34.746Z,72.74
2022-10-01T21:25:01.095Z,72.30
2022-10-01T21:27:47.986Z,72.32
2022-10-01T21:30:17.561Z,71.81
2022-10-01T21:33:19.419Z,71.67
2022-10-01T21:36:15.969Z,71.57
2022-10-01T21:38:53.972Z,71.17
2022-10-01T21:41:27.521Z,71.01
2022-10-01T21:44:10.099Z,71.13
2022-10-01T21:46:47.978Z,71.16
2022-10-01T21:49:17.559Z,71.12
2022-10-01T21:52:10.685Z,71.26
2022-10-01T21:55:05.083Z,71.56
2022-10-01T21:57:34.417Z,71.47
2022-10-01T22:00:22.649Z,71.68
2022-10-01T22:03:13.399Z,71.49
2022-10-01T22:05:46.154Z,71.44
2022-10-01T22:08:27.098Z,71.80
2022-10-01T22:10:58.636Z,71.80
2022-10-01T22:13:33.059Z,71.83
2022-10-01T22:16:07.672Z,71.84
2022-10-01T22:18:40.684Z,71.86
2022-10-01T22:21:39.575Z,72.17
2022-10-01T22:24:13.526Z,72.81
2022-10-01T22:26:45.129Z,73.14
2022-10-01T22:29:19.365Z,73.59
2022-10-01T22:31:49.302Z,73.53
2022-10-01T22:34:23.799Z,73.62
2022-10-01T22:37:08.975Z,73.13
2022-10-01T22:39:49.149Z,72.89
2022-10-01T22:42:35.611Z,72.76
2022-10-01T22:45:06.181Z,72.97
2022-10-01T22:47:53.038Z,73.35
2022-10-01T22:50:39.008Z,73.67
2022-10-01T22:53:28.030Z,73.73
2022-10-01T22:55:55.474Z,73.65
2022-10-01T22:58:44.547Z,73.62
2022-10-01T23:01:31.554Z,73.43
2022-10-01T23:04:28.707Z,73.02
2022-10-01T23:07:15.765Z,72.70
2022-10-01T23:09:55.547Z,72.57
2022-10-01T23:12:37.473Z,72.62
2022-10-01T23:15:19.947Z,72.57
2022-10-01T23:18:21.778Z,72.58
2022-10-01T23:21:08.653Z,72.40
2022-10-01T23:23:35.272Z,72.33
2022-10-01T23:26:22.950Z,72.45
2022-10-01T23:29:02.364Z,72.28
2022-10-01T23:31:45.195Z,72.33
2022-10-01T23:34:37.766Z,72.46
2022-10-01T23:37:16.493Z,72.40
2022-10-01T23:39:48.679Z,72.67
2022-10-01T23:42:28.100Z,72.59
2022-10-01T23:45:08.755Z,72.67
2022-10-01T23:47:43.685Z,72.73
2022-10-01T23:50:27.007Z,72.76
2022-10-01T23:53:30.974Z,72.74
2022-10-01T23:56:22.659Z,72.81
2022-10-01T23:58:56.956Z,73.04
